ADDS METAR Data INFO
IDs: Format: Raw Decoded Include TAF

Data at: 2342 UTC 15 Dec 2017

KCOQ 152335Z AUTO 00000KT 10SM SCT041 OVC080 M09/M14 A2973 RMK AO2
KCOQ 152315Z AUTO 00000KT 10SM SCT041 OVC080 M09/M14 A2973 RMK AO2
KCOQ 152255Z AUTO 00000KT 10SM OVC080 M09/M14 A2974 RMK AO2
KCOQ 152235Z AUTO 00000KT 10SM OVC080 M09/M14 A2973 RMK AO2
KCOQ 152215Z AUTO 00000KT 10SM OVC080 M09/M14 A2973 RMK AO2
KCOQ 152155Z AUTO 00000KT 10SM OVC080 M09/M15 A2974 RMK AO2
KCOQ 152135Z AUTO 00000KT 10SM OVC080 M09/M15 A2974 RMK AO2
KCOQ 152115Z AUTO 00000KT 10SM OVC080 M09/M15 A2974 RMK AO2
KCOQ 152055Z AUTO 00000KT 10SM OVC080 M09/M15 A2974 RMK AO2
KCOQ 152035Z AUTO 00000KT 10SM OVC090 M09/M16 A2974 RMK AO2
KCOQ 152015Z AUTO 00000KT 10SM OVC090 M09/M16 A2975 RMK AO2
KCOQ 151955Z AUTO 27005KT 10SM OVC090 M09/M16 A2975 RMK AO2
KCOQ 151935Z AUTO 27006KT 10SM OVC090 M09/M16 A2976 RMK AO2
KCOQ 151915Z AUTO 28005KT 10SM OVC090 M10/M16 A2976 RMK AO2
KCOQ 151855Z AUTO 28004KT 10SM OVC090 M10/M16 A2977 RMK AO2
KCOQ 151835Z AUTO 26004KT 10SM OVC090 M11/M16 A2978 RMK AO2
KCOQ 151815Z AUTO 29003KT 10SM BKN090 M11/M16 A2979 RMK AO2
KCOQ 151755Z AUTO 26005KT 10SM -SN SCT090 M11/M16 A2981 RMK AO2
KCOQ 151735Z AUTO 27005KT 10SM SCT017 SCT090 M12/M17 A2982 RMK AO2
KCOQ 151715Z AUTO 26006KT 7SM -SN BKN017 M12/M17 A2983 RMK AO2
KCOQ 151655Z AUTO 29007KT 10SM -SN OVC017 M12/M17 A2984 RMK AO2
KCOQ 151635Z AUTO 25006KT 10SM -SN OVC017 M12/M17 A2984 RMK AO2
KCOQ 151615Z AUTO 25007KT 10SM OVC017 M12/M17 A2984 RMK AO2
KCOQ 151555Z AUTO 26006KT 10SM OVC017 M12/M17 A2984 RMK AO2
KCOQ 151535Z AUTO 27007KT 10SM -SN OVC017 M12/M16 A2983 RMK AO2
KCOQ 151515Z AUTO 27005KT 10SM -SN OVC017 M12/M16 A2983 RMK AO2
KCOQ 151455Z AUTO 29004KT 10SM -SN OVC017 M12/M16 A2983 RMK AO2
KCOQ 151435Z AUTO 28005KT 10SM -SN OVC019 M12/M16 A2983 RMK AO2
KCOQ 151415Z AUTO 29006KT 10SM OVC019 M12/M16 A2983 RMK AO2
KCOQ 151355Z AUTO 27006KT 10SM OVC019 M12/M16 A2983 RMK AO2
KCOQ 151335Z AUTO 29008KT 10SM OVC019 M11/M15 A2983 RMK AO2
KCOQ 151315Z AUTO 28009KT 10SM OVC019 M11/M15 A2983 RMK AO2
KCOQ 151255Z AUTO 29007KT 10SM -SN OVC019 M11/M14 A2983 RMK AO2
KCOQ 151235Z AUTO 28007KT 7SM -SN OVC019 M11/M14 A2983 RMK AO2
KCOQ 151215Z AUTO 29006KT 5SM -SN OVC021 M11/M14 A2984 RMK AO2
KCOQ 151155Z AUTO 29006KT 10SM OVC021 M11/M15 A2984 RMK AO2
KCOQ 151136Z AUTO 29009KT 10SM -SN OVC021 M11/M14 A2984 RMK AO2
KCOQ 151115Z AUTO 30003KT 10SM -SN OVC019 M11/M14 A2985 RMK AO2
KCOQ 151055Z AUTO 31007KT 10SM OVC019 M11/M14 A2985 RMK AO2
KCOQ 151036Z AUTO 31009G14KT 10SM OVC019 M11/M14 A2985 RMK AO2
KCOQ 151015Z AUTO 30005KT 7SM -SN OVC019 M10/M13 A2985 RMK AO2
KCOQ 150955Z AUTO 30008KT 10SM -SN OVC019 M10/M13 A2985 RMK AO2
KCOQ 150935Z AUTO 29006KT 10SM -SN OVC019 M11/M13 A2985 RMK AO2
KCOQ 150915Z AUTO 28005KT 10SM -SN BKN016 OVC023 M11/M13 A2986 RMK AO2
KCOQ 150855Z AUTO 27005KT 10SM -SN OVC016 M11/M13 A2986 RMK AO2
KCOQ 150835Z AUTO 27004KT 10SM -SN BKN018 OVC029 M11/M13 A2986 RMK AO2
KCOQ 150815Z AUTO 28007KT 10SM -SN SCT018 OVC029 M11/M13 A2986 RMK AO2
KCOQ 150755Z AUTO 28008KT 10SM -SN OVC031 M11/M14 A2985 RMK AO2
KCOQ 150735Z AUTO 29008KT 10SM -SN OVC033 M11/M14 A2985 RMK AO2
KCOQ 150715Z AUTO 28008KT 10SM -SN OVC035 M11/M14 A2986 RMK AO2
KCOQ 150655Z AUTO 28008KT 10SM -SN OVC037 M11/M14 A2986 RMK AO2
KCOQ 150635Z AUTO 28007KT 10SM OVC037 M11/M14 A2987 RMK AO2
KCOQ 150615Z AUTO 28007KT 10SM -SN SCT018 OVC038 M11/M14 A2987 RMK AO2
KCOQ 150555Z AUTO 29007KT 10SM OVC036 M11/M14 A2988 RMK AO2
KCOQ 150535Z AUTO 28007KT 10SM -SN OVC036 M10/M14 A2988 RMK AO2
KCOQ 150516Z AUTO 28009KT 10SM -SN OVC036 M10/M14 A2988 RMK AO2
KCOQ 150455Z AUTO 29009KT 10SM -SN SCT019 OVC040 M10/M13 A2988 RMK AO2
KCOQ 150435Z AUTO 29007KT 5SM -SN SCT019 SCT029 OVC044 M10/M13 A2989 RMK AO2
KCOQ 150415Z AUTO 28006KT 4SM -SN SCT025 SCT030 OVC044 M10/M13 A2989 RMK AO2
KCOQ 150355Z AUTO 30006KT 5SM -SN SCT023 OVC043 M10/M13 A2989 RMK AO2
KCOQ 150335Z AUTO 30007KT 5SM -SN BKN023 OVC041 M10/M13 A2990 RMK AO2
KCOQ 150315Z AUTO 31006KT 5SM -SN OVC023 M09/M13 A2991 RMK AO2
KCOQ 150255Z AUTO 30009KT 10SM -SN OVC023 M09/M13 A2990 RMK AO2
KCOQ 150235Z AUTO 29005KT 7SM -SN OVC023 M09/M13 A2991 RMK AO2
KCOQ 150215Z AUTO 29008KT 7SM -SN OVC025 M09/M12 A2991 RMK AO2
KCOQ 150155Z AUTO 28007KT 7SM -SN OVC025 M09/M13 A2991 RMK AO2
KCOQ 150135Z AUTO 28007KT 7SM -SN OVC025 M09/M13 A2991 RMK AO2
KCOQ 150115Z AUTO 29009G14KT 10SM -SN OVC025 M09/M13 A2992 RMK AO2
KCOQ 150055Z AUTO 29010KT 10SM -SN OVC025 M09/M13 A2992 RMK AO2
KCOQ 150035Z AUTO 28007KT 10SM -SN OVC025 M09/M12 A2992 RMK AO2
KCOQ 150015Z AUTO 29007KT 10SM -SN OVC025 M09/M12 A2993 RMK AO2
KCOQ 142355Z AUTO 28005KT 7SM -SN SCT020 OVC025 M09/M11 A2993 RMK AO2
KCOQ 142335Z AUTO 26004KT 5SM -SN SCT020 OVC027 M08/M11 A2993 RMK AO2
KCOQ 142315Z AUTO 26004KT 5SM -SN OVC027 M08/M11 A2993 RMK AO2
KCOQ 142255Z AUTO 26006KT 4SM -SN OVC029 M08/M11 A2994 RMK AO2
KCOQ 142235Z AUTO 26004KT 4SM -SN OVC029 M08/M11 A2994 RMK AO2
KCOQ 142215Z AUTO 26005KT 5SM -SN OVC029 M08/M12 A2993 RMK AO2
KCOQ 142155Z AUTO 27005KT 5SM -SN OVC027 M08/M12 A2993 RMK AO2
KCOQ 142135Z AUTO 28007KT 7SM -SN SCT021 OVC027 M08/M12 A2993 RMK AO2
KCOQ 142115Z AUTO 27006KT 7SM -SN OVC023 M08/M12 A2993 RMK AO2
KCOQ 142055Z AUTO 27008KT 10SM -SN BKN021 OVC027 M08/M12 A2992 RMK AO2
KCOQ 142035Z AUTO 27006KT 10SM -SN BKN021 OVC035 M08/M12 A2992 RMK AO2
KCOQ 142015Z AUTO 28008KT 7SM -SN BKN021 OVC035 M08/M12 A2992 RMK AO2
KCOQ 141955Z AUTO 26006KT 3SM -SN BKN021 OVC037 M08/M12 A2993 RMK AO2
KCOQ 141935Z AUTO 27007KT 10SM -SN OVC021 M08/M13 A2993 RMK AO2
KCOQ 141915Z AUTO 28005KT 5SM -SN OVC019 M08/M13 A2994 RMK AO2
KCOQ 141855Z AUTO 27008KT 10SM -SN OVC019 M08/M13 A2995 RMK AO2
KCOQ 141835Z AUTO 27005KT 5SM -SN BKN019 BKN027 OVC050 M08/M12 A2994 RMK AO2
KCOQ 141815Z AUTO 28007KT 4SM -SN SCT017 BKN039 OVC048 M09/M13 A2994 RMK AO2
KCOQ 141755Z AUTO 27005KT 2SM -SN SCT017 BKN028 OVC046 M09/M12 A2995 RMK AO2 VIS 1 1/2V3
KCOQ 141735Z AUTO 27006KT 2SM -SN BKN020 OVC028 M09/M12 A2996 RMK AO2
KCOQ 141715Z AUTO 29007KT 1 3/4SM -SN BKN017 OVC040 M09/M12 A2996 RMK AO2
KCOQ 141655Z AUTO 30005KT 1 1/2SM -SN OVC013 M09/M12 A2997 RMK AO2
KCOQ 141635Z AUTO 29004KT 1 3/4SM -SN OVC011 M09/M12 A2997 RMK AO2
KCOQ 141615Z AUTO 26005KT 3SM -SN OVC009 M09/M12 A2997 RMK AO2
KCOQ 141555Z AUTO 26006KT 7SM -SN OVC007 M09/M12 A2997 RMK AO2
KCOQ 141535Z AUTO 28008KT 10SM -SN OVC007 M09/M12 A2996 RMK AO2
KCOQ 141515Z AUTO 28005KT 10SM -SN OVC007 M09/M12 A2997 RMK AO2
KCOQ 141455Z AUTO 31006KT 10SM -SN OVC007 M10/M12 A2996 RMK AO2
KCOQ 141435Z AUTO 30006KT 10SM -SN OVC007 M10/M12 A2995 RMK AO2
KCOQ 141415Z AUTO 29004KT 10SM -SN OVC007 M10/M12 A2995 RMK AO2
KCOQ 141355Z AUTO 27006KT 10SM -SN OVC007 M10/M12 A2995 RMK AO2
KCOQ 141335Z AUTO 27007KT 10SM -SN OVC007 M10/M12 A2995 RMK AO2
KCOQ 141315Z AUTO 27009KT 10SM -SN OVC007 M09/M12 A2995 RMK AO2
KCOQ 141255Z AUTO 29009KT 10SM -SN OVC009 M09/M12 A2994 RMK AO2
KCOQ 141235Z AUTO 28008KT 10SM -SN OVC009 M09/M12 A2994 RMK AO2
KCOQ 141215Z AUTO 25004KT 10SM -SN OVC011 M09/M11 A2993 RMK AO2
KCOQ 141155Z AUTO 26004KT 10SM -SN OVC011 M09/M11 A2993 RMK AO2